Aeroporto :
LOGIN :

Iscrizione | Disclaimer

   EN    FR    IT 

 










Sommario :    VFR   VFR Marginale   IFR   IFR Intensivo   IFR Molto Intensivo
Visibilità : 
Base nubi : 
>= 8 km
>= 3000ft
5 / 8 km
1000 / 3000 ft
1500m / 5 km
500 / 1000 ft
800 / 1500m
200 / 500 ft
< 800m
< 200 ft
Simboli :   Temporali  Nebbia  Neve Forte  Precipitazioni Forti  Vento > 20 kt
SIGMETs :   Varie  Temporali  Ghiacco  Turbolenza  Onda orograficha  Ceneri Vulcaniche






- Altitudine del aeroporto : 2031 ft


LEGT - Madrid Getafe

ULTIMO METAR :
  • 251700Z 08007KT 050V110 9999 -SHRA VCTS FEW020 SCT035CB 22/18 Q1023

METARs OBSOLETI :
  • 251600Z 13012KT 100V160 8000 -SHRA VCTS FEW015 SCT040CB SCT045TCU 21/18 Q1024
  • 251500Z 12009KT 080V160 9999 FEW040TCU 28/14 Q1023

TAF TAF LEGT
Valido dal 25 a 15 ore il 26 a 00 ore UTC


251400Z 2515/2524 VRB05KT 9999 FEW040
PROB40
TEMPO 2515/2522 VRB15G25KT 2000 TS SHRA SCT025CB
PROB30
TEMPO 2515/2522 0800 TSGR SCT025CB



MetMap, La meteo Aeronautica in un colpo d'occhio ! - Copyright ORBIFLY Dicembre 2007 - Disclaimer

ORBIFLY MET'MAP TEAM :

Programmazione e sviluppo : Alexandra Zaïnal
Concezione : Baudouin d'Aumeries
Aiuto per la programmazione : Marc-Olivier Méhu
Supporto tecnico e logistico : Manuel Goepfert
Aiuto per la traduzione : Arnaldo La Scala

Contatto : metmap@orbifly.com




FONTI E CREDITI :

   NOAA